Time;durP1;ratioP1;P1;durP2;ratioP2;P2;SDS_P1;SDS_P2;PMS_P1;PMS_P2;Temp;Humidity;BMP_temperature;BMP_pressure;BME280_temperature;BME280_humidity;BME280_pressure;Samples;Min_cycle;Max_cycle;Signal;HPM_P1;HPM_P2
2022/01/22 00:00:04;;;;;;;8.65;2.50;;;;;;;;;;5127237;27;20056;-65
2022/01/22 00:02:34;;;;;;;16.10;3.35;;;;;;;;;;5124440;27;20048;-65
2022/01/22 00:05:01;;;;;;;7.78;2.17;;;;;;;;;;5140937;27;20059;-65
2022/01/22 00:07:27;;;;;;;10.27;2.20;;;;;;;;;;5117556;27;20059;-66
2022/01/22 00:09:59;;;;;;;6.30;1.83;;;;;;;;;;5135176;27;20055;-64
2022/01/22 00:14:59;;;;;;;17.40;2.88;;;;;;;;;;5128465;27;20058;-65
2022/01/22 00:17:25;;;;;;;9.65;1.90;;;;;;;;;;5135830;27;20049;-65
2022/01/22 00:19:51;;;;;;;10.05;2.53;;;;;;;;;;5136441;27;20048;-65
2022/01/22 00:22:22;;;;;;;20.42;2.85;;;;;;;;;;5141081;27;20055;-66
2022/01/22 00:24:53;;;;;;;11.13;2.80;;;;;;;;;;5136172;27;20054;-64
2022/01/22 00:27:20;;;;;;;9.55;2.25;;;;;;;;;;5134098;27;20082;-66
2022/01/22 00:29:46;;;;;;;9.48;1.80;;;;;;;;;;5137895;27;20510;-65
2022/01/22 00:32:12;;;;;;;9.52;1.85;;;;;;;;;;5134367;27;20054;-66
2022/01/22 00:34:39;;;;;;;11.32;2.13;;;;;;;;;;5150307;27;20498;-65
2022/01/22 00:37:05;;;;;;;13.93;2.40;;;;;;;;;;5131803;27;20063;-64
2022/01/22 00:39:34;;;;;;;12.05;2.60;;;;;;;;;;5134098;27;20060;-66
2022/01/22 00:42:01;;;;;;;13.38;2.20;;;;;;;;;;5127121;27;20051;-64
2022/01/22 00:44:27;;;;;;;9.23;2.13;;;;;;;;;;5131704;27;20113;-65
2022/01/22 00:46:53;;;;;;;15.88;2.03;;;;;;;;;;5139395;27;20116;-65
2022/01/22 00:49:20;;;;;;;7.65;2.53;;;;;;;;;;5142563;27;20057;-65
2022/01/22 00:51:46;;;;;;;15.63;2.10;;;;;;;;;;5153589;27;20061;-67
2022/01/22 00:54:12;;;;;;;11.57;2.42;;;;;;;;;;5137115;27;20054;-65
2022/01/22 00:56:44;;;;;;;12.25;3.08;;;;;;;;;;5137452;27;20109;-66
2022/01/22 00:59:10;;;;;;;10.80;2.90;;;;;;;;;;5134732;27;20521;-65
2022/01/22 01:01:36;;;;;;;11.48;2.92;;;;;;;;;;5135767;27;20062;-64
2022/01/22 01:04:03;;;;;;;10.35;2.30;;;;;;;;;;5145017;27;20475;-66
2022/01/22 01:06:30;;;;;;;15.52;2.25;;;;;;;;;;5135285;27;20059;-65
2022/01/22 01:08:59;;;;;;;13.88;2.92;;;;;;;;;;5151894;27;20474;-65
2022/01/22 01:11:27;;;;;;;17.98;4.13;;;;;;;;;;5140486;27;20047;-64
2022/01/22 01:13:58;;;;;;;13.60;2.92;;;;;;;;;;5147757;27;20055;-64
2022/01/22 01:32:59;;;;;;;10.15;2.72;;;;;;;;;;5128284;27;20047;-64
2022/01/22 01:35:27;;;;;;;6.93;2.75;;;;;;;;;;5128800;27;20059;-65
2022/01/22 01:37:56;;;;;;;15.35;3.30;;;;;;;;;;5142486;27;20063;-65
2022/01/22 01:40:24;;;;;;;11.57;3.83;;;;;;;;;;5150636;27;20043;-64
2022/01/22 01:43:04;;;;;;;15.02;3.05;;;;;;;;;;5141889;27;20047;-65
2022/01/22 01:45:31;;;;;;;14.20;4.82;;;;;;;;;;5134455;27;20048;-65
2022/01/22 01:48:00;;;;;;;13.23;3.60;;;;;;;;;;5137664;27;20055;-66
2022/01/22 01:50:27;;;;;;;17.02;3.30;;;;;;;;;;5114750;27;20052;-65
2022/01/22 01:53:08;;;;;;;14.02;3.83;;;;;;;;;;5134241;27;20047;-64
2022/01/22 01:55:48;;;;;;;16.55;3.40;;;;;;;;;;5132923;27;20047;-65
2022/01/22 01:58:16;;;;;;;17.10;3.80;;;;;;;;;;5133656;27;20048;-65
2022/01/22 02:00:43;;;;;;;15.82;3.63;;;;;;;;;;5140347;27;20047;-66
2022/01/22 02:03:11;;;;;;;12.60;3.15;;;;;;;;;;5121413;27;20082;-65
2022/01/22 02:05:39;;;;;;;17.15;4.15;;;;;;;;;;5149054;27;20059;-66
2022/01/22 02:08:06;;;;;;;12.73;4.13;;;;;;;;;;5144347;27;20051;-65
2022/01/22 02:10:36;;;;;;;11.95;3.13;;;;;;;;;;5149211;27;20050;-64
2022/01/22 02:24:04;;;;;;;15.15;4.30;;;;;;;;;;5131371;27;20139;-70
2022/01/22 02:26:30;;;;;;;27.35;6.22;;;;;;;;;;5129144;27;20056;-65
2022/01/22 02:28:57;;;;;;;16.15;4.45;;;;;;;;;;5135911;27;20055;-65
2022/01/22 02:34:03;;;;;;;29.30;4.68;;;;;;;;;;5137493;27;20157;-65
2022/01/22 02:36:35;;;;;;;16.08;5.03;;;;;;;;;;5133771;27;20183;-64
2022/01/22 02:39:10;;;;;;;18.73;5.32;;;;;;;;;;5142719;27;20497;-65
2022/01/22 02:41:41;;;;;;;23.27;4.47;;;;;;;;;;5123377;27;20070;-66
2022/01/22 02:44:08;;;;;;;22.55;4.68;;;;;;;;;;5143608;27;20509;-65
2022/01/22 02:46:38;;;;;;;19.33;4.93;;;;;;;;;;5139092;27;20051;-65
2022/01/22 02:49:04;;;;;;;15.52;4.78;;;;;;;;;;5128494;27;20048;-66
2022/01/22 02:51:30;;;;;;;16.90;5.20;;;;;;;;;;5133832;27;20051;-65
2022/01/22 02:53:57;;;;;;;16.05;5.35;;;;;;;;;;5141759;27;20051;-65
2022/01/22 02:56:23;;;;;;;17.00;4.35;;;;;;;;;;5140066;27;20063;-65
2022/01/22 02:58:50;;;;;;;16.58;4.57;;;;;;;;;;5146247;27;20062;-65
2022/01/22 03:01:18;;;;;;;14.23;5.32;;;;;;;;;;5144769;27;20047;-65
2022/01/22 03:03:44;;;;;;;20.33;4.90;;;;;;;;;;5135602;27;20062;-65
2022/01/22 03:06:11;;;;;;;16.65;4.80;;;;;;;;;;5145799;27;20048;-65
2022/01/22 03:08:40;;;;;;;16.48;4.32;;;;;;;;;;5152492;27;20052;-65
2022/01/22 03:11:16;;;;;;;16.30;4.40;;;;;;;;;;5144647;27;20051;-65
2022/01/22 03:16:29;;;;;;;12.73;3.92;;;;;;;;;;5135949;27;20509;-65
2022/01/22 03:19:11;;;;;;;12.15;3.58;;;;;;;;;;5123387;27;20062;-65
2022/01/22 03:21:42;;;;;;;16.95;3.95;;;;;;;;;;5130133;27;20577;-65
2022/01/22 03:29:40;;;;;;;19.65;4.50;;;;;;;;;;5154386;27;20051;-65
2022/01/22 03:32:10;;;;;;;21.08;3.97;;;;;;;;;;5141855;27;20055;-64
2022/01/22 03:34:43;;;;;;;15.57;3.03;;;;;;;;;;5140490;27;20477;-65
2022/01/22 03:37:09;;;;;;;15.68;4.20;;;;;;;;;;5138289;27;20055;-65
2022/01/22 03:39:35;;;;;;;12.82;3.58;;;;;;;;;;5149903;27;20062;-64
2022/01/22 03:42:02;;;;;;;13.07;3.92;;;;;;;;;;5151581;27;20138;-64
2022/01/22 03:44:30;;;;;;;19.98;3.90;;;;;;;;;;5130054;27;20056;-65
2022/01/22 03:46:56;;;;;;;17.27;4.30;;;;;;;;;;5139714;27;20980;-65
2022/01/22 03:49:22;;;;;;;16.00;3.00;;;;;;;;;;5138813;27;20047;-65
2022/01/22 03:51:49;;;;;;;20.60;4.32;;;;;;;;;;5146014;27;20105;-65
2022/01/22 03:54:15;;;;;;;12.27;3.33;;;;;;;;;;5131549;27;20058;-65
2022/01/22 03:56:45;;;;;;;14.27;3.08;;;;;;;;;;5135990;27;20052;-71
2022/01/22 03:59:12;;;;;;;12.38;3.70;;;;;;;;;;5154393;27;20498;-67
2022/01/22 04:04:15;;;;;;;11.30;3.08;;;;;;;;;;5135352;27;20895;-66
2022/01/22 04:09:16;;;;;;;11.40;3.92;;;;;;;;;;5134715;27;20437;-64
2022/01/22 04:11:45;;;;;;;19.75;4.38;;;;;;;;;;5144408;27;20058;-65
2022/01/22 04:14:20;;;;;;;13.73;4.70;;;;;;;;;;5133387;27;20058;-66
2022/01/22 04:17:18;;;;;;;11.13;3.67;;;;;;;;;;5139813;27;20058;-64
2022/01/22 04:25:19;;;;;;;15.13;3.45;;;;;;;;;;5134783;27;20056;-65
2022/01/22 04:27:48;;;;;;;23.27;4.78;;;;;;;;;;5138461;27;20051;-66
2022/01/22 04:30:14;;;;;;;19.48;3.30;;;;;;;;;;5140090;27;20564;-66
2022/01/22 04:32:40;;;;;;;15.52;3.97;;;;;;;;;;5146104;27;20494;-66
2022/01/22 04:35:07;;;;;;;12.25;4.15;;;;;;;;;;5133264;27;20059;-65
2022/01/22 04:37:33;;;;;;;18.05;4.45;;;;;;;;;;5139036;27;20052;-65
2022/01/22 04:39:59;;;;;;;14.95;4.10;;;;;;;;;;5142588;27;20051;-64
2022/01/22 04:42:29;;;;;;;14.63;3.60;;;;;;;;;;5134535;27;20044;-65
2022/01/22 04:45:04;;;;;;;16.30;4.10;;;;;;;;;;5137161;27;20062;-65
2022/01/22 04:47:46;;;;;;;20.92;4.32;;;;;;;;;;5136803;27;20052;-65
2022/01/22 04:55:39;;;;;;;14.73;3.58;;;;;;;;;;5119607;27;20058;-65
2022/01/22 04:58:06;;;;;;;16.40;3.67;;;;;;;;;;5132105;27;20051;-64
2022/01/22 05:00:34;;;;;;;19.25;4.07;;;;;;;;;;5132947;27;20051;-64
2022/01/22 05:03:01;;;;;;;17.35;3.92;;;;;;;;;;5143391;27;20087;-65
2022/01/22 05:05:28;;;;;;;16.52;4.28;;;;;;;;;;5132182;27;20062;-65
2022/01/22 05:07:54;;;;;;;16.42;5.22;;;;;;;;;;5132838;27;20063;-65
2022/01/22 05:10:21;;;;;;;15.43;5.18;;;;;;;;;;5139504;27;20568;-66
2022/01/22 05:12:47;;;;;;;22.48;4.35;;;;;;;;;;5143009;27;20051;-66
2022/01/22 05:15:16;;;;;;;10.63;3.90;;;;;;;;;;5135051;27;20052;-67
2022/01/22 05:17:43;;;;;;;7.70;3.47;;;;;;;;;;5136439;27;20054;-64
2022/01/22 05:20:19;;;;;;;14.68;4.03;;;;;;;;;;5135651;27;20074;-64
2022/01/22 05:25:30;;;;;;;12.77;4.32;;;;;;;;;;5129908;27;46301;-65
2022/01/22 05:28:12;;;;;;;15.77;4.50;;;;;;;;;;5139719;27;20399;-65
2022/01/22 05:38:22;;;;;;;21.20;5.05;;;;;;;;;;5131174;27;20051;-66
2022/01/22 05:40:49;;;;;;;18.10;5.25;;;;;;;;;;5125481;27;20105;-66
2022/01/22 05:43:15;;;;;;;16.67;4.97;;;;;;;;;;5126095;27;20522;-65
2022/01/22 05:45:42;;;;;;;19.10;5.13;;;;;;;;;;5126820;27;20047;-66
2022/01/22 05:48:08;;;;;;;14.82;4.07;;;;;;;;;;5146870;27;20055;-66
2022/01/22 05:50:46;;;;;;;9.85;3.40;;;;;;;;;;5128558;27;20131;-66
2022/01/22 05:53:27;;;;;;;10.90;3.58;;;;;;;;;;5142530;27;20051;-66
2022/01/22 06:01:09;;;;;;;22.70;4.30;;;;;;;;;;5137520;27;20055;-66
2022/01/22 06:03:35;;;;;;;14.18;4.20;;;;;;;;;;5117829;27;20515;-68
2022/01/22 06:06:02;;;;;;;10.85;4.47;;;;;;;;;;5130870;27;20048;-67
2022/01/22 06:08:40;;;;;;;17.92;3.38;;;;;;;;;;5119926;27;20058;-66
2022/01/22 06:11:09;;;;;;;10.77;2.85;;;;;;;;;;5147394;27;20501;-66
2022/01/22 06:13:46;;;;;;;15.55;3.80;;;;;;;;;;5147404;27;20043;-66
2022/01/22 06:16:14;;;;;;;16.23;3.63;;;;;;;;;;5140631;27;20481;-67
2022/01/22 06:18:41;;;;;;;14.40;3.15;;;;;;;;;;5134926;27;20505;-66
2022/01/22 06:21:11;;;;;;;9.73;2.88;;;;;;;;;;5136283;27;20051;-66
2022/01/22 06:23:38;;;;;;;10.63;2.92;;;;;;;;;;5137602;27;20427;-67
2022/01/22 06:26:06;;;;;;;10.40;2.95;;;;;;;;;;5135648;27;20047;-65
2022/01/22 06:28:32;;;;;;;8.25;2.90;;;;;;;;;;5128459;27;20525;-66
2022/01/22 06:30:59;;;;;;;33.72;4.18;;;;;;;;;;5131563;27;20126;-66
2022/01/22 06:33:26;;;;;;;11.85;2.35;;;;;;;;;;5131949;27;20522;-66
2022/01/22 06:35:52;;;;;;;15.75;3.10;;;;;;;;;;5132963;27;20051;-66
2022/01/22 06:38:19;;;;;;;10.00;2.17;;;;;;;;;;5130425;27;20195;-66
2022/01/22 06:43:30;;;;;;;14.47;1.97;;;;;;;;;;5119953;27;20428;-66
2022/01/22 06:45:57;;;;;;;13.10;2.53;;;;;;;;;;5141340;27;20060;-65
2022/01/22 06:48:23;;;;;;;14.20;2.83;;;;;;;;;;5132786;27;20104;-66
2022/01/22 06:50:50;;;;;;;8.70;1.92;;;;;;;;;;5131954;27;20056;-65
2022/01/22 06:53:16;;;;;;;10.82;2.08;;;;;;;;;;5123937;27;20179;-66
2022/01/22 06:55:52;;;;;;;11.90;2.45;;;;;;;;;;5128796;27;20063;-65
2022/01/22 06:58:19;;;;;;;13.15;2.45;;;;;;;;;;5122228;27;20056;-65
2022/01/22 07:00:45;;;;;;;11.68;2.08;;;;;;;;;;5124725;27;20057;-65
2022/01/22 07:03:11;;;;;;;9.02;1.90;;;;;;;;;;5131855;27;20048;-65
2022/01/22 07:05:38;;;;;;;21.20;3.03;;;;;;;;;;5130736;27;20063;-67
2022/01/22 07:08:04;;;;;;;10.75;2.38;;;;;;;;;;5131481;27;20062;-65
2022/01/22 07:10:31;;;;;;;11.40;1.95;;;;;;;;;;5132856;27;20059;-65
2022/01/22 07:12:57;;;;;;;7.80;2.33;;;;;;;;;;5131636;27;20056;-66
2022/01/22 07:15:23;;;;;;;8.55;2.00;;;;;;;;;;5129156;27;20047;-66
2022/01/22 07:17:49;;;;;;;6.57;2.03;;;;;;;;;;5132163;27;20054;-66
2022/01/22 07:20:24;;;;;;;10.93;2.20;;;;;;;;;;5132542;27;20052;-66
2022/01/22 07:22:54;;;;;;;14.07;2.10;;;;;;;;;;5131763;27;20062;-66
2022/01/22 07:25:20;;;;;;;12.82;2.47;;;;;;;;;;5111427;27;20058;-65
2022/01/22 07:27:47;;;;;;;12.88;2.22;;;;;;;;;;5130590;27;20055;-67
2022/01/22 07:30:13;;;;;;;8.60;1.60;;;;;;;;;;5129845;27;20051;-66
2022/01/22 07:32:43;;;;;;;7.60;1.70;;;;;;;;;;5125690;27;20051;-65
2022/01/22 07:35:13;;;;;;;9.52;2.13;;;;;;;;;;5130977;27;20047;-66
2022/01/22 07:37:39;;;;;;;10.45;2.33;;;;;;;;;;5123577;27;20075;-66
2022/01/22 07:40:07;;;;;;;8.10;2.08;;;;;;;;;;5131948;27;20442;-66
2022/01/22 07:42:34;;;;;;;9.57;1.65;;;;;;;;;;5131729;27;20047;-66
2022/01/22 07:45:01;;;;;;;9.13;1.95;;;;;;;;;;5131638;27;20047;-65
2022/01/22 07:47:27;;;;;;;8.98;1.95;;;;;;;;;;5126625;27;20139;-66
2022/01/22 07:49:53;;;;;;;6.20;1.63;;;;;;;;;;5112800;27;20059;-65
2022/01/22 07:52:19;;;;;;;13.98;1.90;;;;;;;;;;5125329;27;20138;-66
2022/01/22 07:54:46;;;;;;;10.40;2.20;;;;;;;;;;5135433;27;20047;-66
2022/01/22 07:57:12;;;;;;;15.25;1.98;;;;;;;;;;5119036;27;20059;-66
2022/01/22 07:59:38;;;;;;;9.07;2.00;;;;;;;;;;5127597;27;20051;-66
2022/01/22 08:02:05;;;;;;;11.18;2.15;;;;;;;;;;5134347;27;20051;-66
2022/01/22 08:04:32;;;;;;;7.00;1.80;;;;;;;;;;5133824;27;20150;-66
2022/01/22 08:07:03;;;;;;;7.85;1.60;;;;;;;;;;5125886;27;20081;-66
2022/01/22 08:09:29;;;;;;;7.45;1.30;;;;;;;;;;5129747;27;20047;-66
2022/01/22 08:11:56;;;;;;;10.80;1.83;;;;;;;;;;5134956;27;20051;-67
2022/01/22 08:14:22;;;;;;;5.47;1.67;;;;;;;;;;5133218;27;20056;-67
2022/01/22 08:16:49;;;;;;;7.72;1.80;;;;;;;;;;5135250;27;20056;-67
2022/01/22 08:19:16;;;;;;;12.82;2.97;;;;;;;;;;5131406;27;20043;-67
2022/01/22 08:21:43;;;;;;;5.68;1.40;;;;;;;;;;5134924;27;20048;-66
2022/01/22 08:24:10;;;;;;;10.80;2.83;;;;;;;;;;5131314;27;20048;-65
2022/01/22 08:26:42;;;;;;;14.43;2.13;;;;;;;;;;5133305;27;20062;-66
2022/01/22 08:29:09;;;;;;;6.13;1.98;;;;;;;;;;5135048;27;20071;-66
2022/01/22 08:36:48;;;;;;;8.05;2.10;;;;;;;;;;5134022;27;20143;-66
2022/01/22 08:39:15;;;;;;;7.70;2.05;;;;;;;;;;5114734;27;20052;-65
2022/01/22 08:41:41;;;;;;;7.50;1.98;;;;;;;;;;5129560;27;20062;-66
2022/01/22 08:44:08;;;;;;;6.18;2.22;;;;;;;;;;5131109;27;20147;-66
2022/01/22 08:46:34;;;;;;;7.28;3.10;;;;;;;;;;5123918;27;20168;-65
2022/01/22 08:49:01;;;;;;;9.50;2.70;;;;;;;;;;5122159;27;20052;-65
2022/01/22 08:51:27;;;;;;;9.15;2.20;;;;;;;;;;5135242;27;20056;-66
2022/01/22 08:53:55;;;;;;;12.38;2.53;;;;;;;;;;5133983;27;20545;-66
2022/01/22 08:56:21;;;;;;;4.80;2.33;;;;;;;;;;5134115;27;20052;-66
2022/01/22 08:58:47;;;;;;;8.65;2.92;;;;;;;;;;5115883;27;20050;-65
2022/01/22 09:01:14;;;;;;;4.00;2.33;;;;;;;;;;5133181;27;20142;-66
2022/01/22 09:03:40;;;;;;;11.18;2.95;;;;;;;;;;5134332;27;20108;-66
2022/01/22 09:06:07;;;;;;;8.93;2.38;;;;;;;;;;5132757;27;20051;-66
2022/01/22 09:08:34;;;;;;;10.18;2.50;;;;;;;;;;5127804;27;20154;-65
2022/01/22 09:11:00;;;;;;;5.70;2.30;;;;;;;;;;5130492;27;20082;-65
2022/01/22 09:13:28;;;;;;;10.20;2.83;;;;;;;;;;5138945;27;20385;-66
2022/01/22 09:15:55;;;;;;;8.07;2.90;;;;;;;;;;5134856;27;20043;-67
2022/01/22 09:18:22;;;;;;;8.25;3.00;;;;;;;;;;5128145;27;20054;-65
2022/01/22 09:23:15;;;;;;;9.52;3.45;;;;;;;;;;5138239;27;20142;-66
2022/01/22 09:25:41;;;;;;;8.13;2.67;;;;;;;;;;5132465;27;20048;-66
2022/01/22 09:28:10;;;;;;;9.38;3.83;;;;;;;;;;5140368;27;20052;-65
2022/01/22 09:30:37;;;;;;;5.82;2.55;;;;;;;;;;5124442;27;20050;-67
2022/01/22 09:33:03;;;;;;;11.15;3.22;;;;;;;;;;5133406;27;20081;-67
2022/01/22 09:35:30;;;;;;;8.75;2.30;;;;;;;;;;5133574;27;20052;-69
2022/01/22 09:37:57;;;;;;;8.15;2.53;;;;;;;;;;5123064;27;20087;-68
2022/01/22 09:40:25;;;;;;;8.52;2.83;;;;;;;;;;5117055;27;20054;-70
2022/01/22 09:42:51;;;;;;;19.48;3.05;;;;;;;;;;5128652;27;20193;-68
2022/01/22 09:45:17;;;;;;;11.25;2.60;;;;;;;;;;5132958;27;20043;-68
2022/01/22 09:47:45;;;;;;;14.93;2.80;;;;;;;;;;5134540;27;20051;-68
2022/01/22 09:50:11;;;;;;;6.82;2.80;;;;;;;;;;5129096;27;20062;-68
2022/01/22 09:52:41;;;;;;;11.43;2.60;;;;;;;;;;5122693;27;20048;-68
2022/01/22 09:55:08;;;;;;;7.22;2.95;;;;;;;;;;5112335;27;20533;-68
2022/01/22 09:57:36;;;;;;;7.43;2.63;;;;;;;;;;5130792;27;20062;-68
2022/01/22 10:00:09;;;;;;;12.15;3.55;;;;;;;;;;5132239;27;20152;-69
2022/01/22 10:02:46;;;;;;;8.02;2.22;;;;;;;;;;5133947;27;20051;-70
2022/01/22 10:05:33;;;;;;;8.57;2.70;;;;;;;;;;5124676;27;20058;-69
2022/01/22 10:08:17;;;;;;;14.00;3.33;;;;;;;;;;5114583;27;20055;-67
2022/01/22 10:10:45;;;;;;;11.23;2.72;;;;;;;;;;5116522;27;20059;-68
2022/01/22 10:13:11;;;;;;;7.28;3.33;;;;;;;;;;5133223;27;20500;-69
2022/01/22 10:15:39;;;;;;;6.93;2.80;;;;;;;;;;5132185;27;20052;-68
2022/01/22 10:18:06;;;;;;;12.68;3.40;;;;;;;;;;5119598;27;20512;-68
2022/01/22 10:20:37;;;;;;;6.07;2.38;;;;;;;;;;5113436;27;20052;-68
2022/01/22 10:23:06;;;;;;;9.00;2.80;;;;;;;;;;5132558;27;20052;-67
2022/01/22 10:25:38;;;;;;;9.20;2.85;;;;;;;;;;5132930;27;20083;-69
2022/01/22 10:28:10;;;;;;;9.70;2.58;;;;;;;;;;5114578;27;20098;-69
2022/01/22 10:30:39;;;;;;;6.22;2.60;;;;;;;;;;5132614;27;20058;-69
2022/01/22 10:33:21;;;;;;;6.50;2.75;;;;;;;;;;5133064;27;20040;-69
2022/01/22 10:35:48;;;;;;;8.60;3.05;;;;;;;;;;5131489;27;20052;-68
2022/01/22 10:38:17;;;;;;;8.50;2.80;;;;;;;;;;5125983;27;20496;-68
2022/01/22 10:40:45;;;;;;;9.45;3.22;;;;;;;;;;5130624;27;20130;-68
2022/01/22 10:43:20;;;;;;;8.98;2.40;;;;;;;;;;5123543;27;20058;-69
2022/01/22 10:46:08;;;;;;;6.68;2.50;;;;;;;;;;5125253;27;20077;-67
2022/01/22 10:48:36;;;;;;;9.25;2.50;;;;;;;;;;5112280;27;20588;-67
2022/01/22 10:51:04;;;;;;;5.53;2.13;;;;;;;;;;5112636;27;20474;-67
2022/01/22 10:53:34;;;;;;;5.97;2.58;;;;;;;;;;5123934;27;20176;-67
2022/01/22 10:56:02;;;;;;;13.90;2.45;;;;;;;;;;5139113;27;20075;-67
2022/01/22 10:58:28;;;;;;;7.75;2.67;;;;;;;;;;5127871;27;20046;-66
2022/01/22 11:00:59;;;;;;;6.63;2.30;;;;;;;;;;5130123;27;20051;-67
2022/01/22 11:03:28;;;;;;;9.45;2.88;;;;;;;;;;5111943;27;20056;-66
2022/01/22 11:05:55;;;;;;;12.68;3.20;;;;;;;;;;5111628;27;20147;-65
2022/01/22 11:08:22;;;;;;;8.45;3.03;;;;;;;;;;5123889;27;20062;-65
2022/01/22 11:10:49;;;;;;;7.50;1.95;;;;;;;;;;5132913;27;20055;-65
2022/01/22 11:13:15;;;;;;;11.35;2.40;;;;;;;;;;5131280;27;20155;-66
2022/01/22 11:15:43;;;;;;;5.18;1.90;;;;;;;;;;5112259;28;20131;-66
2022/01/22 11:18:10;;;;;;;9.23;2.70;;;;;;;;;;5122336;27;20052;-67
2022/01/22 11:20:36;;;;;;;6.72;2.45;;;;;;;;;;5117031;27;20067;-66
2022/01/22 11:23:04;;;;;;;8.23;2.88;;;;;;;;;;5127177;27;20083;-66
2022/01/22 11:25:33;;;;;;;11.45;2.30;;;;;;;;;;5124875;27;20043;-66
2022/01/22 11:28:00;;;;;;;4.07;2.40;;;;;;;;;;5138807;27;20139;-66
2022/01/22 11:30:27;;;;;;;7.43;2.85;;;;;;;;;;5135550;27;20047;-67
2022/01/22 11:33:04;;;;;;;7.43;2.83;;;;;;;;;;5135147;27;20150;-64
2022/01/22 11:35:50;;;;;;;4.78;2.50;;;;;;;;;;5116312;27;20047;-65
2022/01/22 11:38:18;;;;;;;4.50;2.42;;;;;;;;;;5146966;27;20058;-65
2022/01/22 11:41:04;;;;;;;6.75;2.10;;;;;;;;;;5119417;27;20487;-66
2022/01/22 11:43:52;;;;;;;6.72;2.40;;;;;;;;;;5134760;27;20127;-65
2022/01/22 11:46:27;;;;;;;6.88;2.45;;;;;;;;;;5132707;27;20052;-65
2022/01/22 11:49:09;;;;;;;3.33;2.17;;;;;;;;;;5134880;27;20055;-65
2022/01/22 11:51:35;;;;;;;3.38;2.70;;;;;;;;;;5135799;27;20059;-65
2022/01/22 11:54:02;;;;;;;4.30;2.60;;;;;;;;;;5135515;27;20055;-66
2022/01/22 11:56:49;;;;;;;8.00;3.38;;;;;;;;;;5133133;27;20056;-65
2022/01/22 11:59:16;;;;;;;5.28;3.35;;;;;;;;;;5122179;27;20056;-65
2022/01/22 12:01:43;;;;;;;9.55;3.92;;;;;;;;;;5124342;27;20052;-65
2022/01/22 12:04:11;;;;;;;8.43;3.78;;;;;;;;;;5143374;27;20060;-66
2022/01/22 12:06:59;;;;;;;8.90;4.75;;;;;;;;;;5147437;27;20047;-65
2022/01/22 12:09:29;;;;;;;10.13;5.50;;;;;;;;;;5131466;27;20145;-64
2022/01/22 12:14:46;;;;;;;14.18;5.00;;;;;;;;;;5133187;27;20051;-67
2022/01/22 12:17:19;;;;;;;11.73;4.93;;;;;;;;;;5127320;27;20073;-67
2022/01/22 12:22:30;;;;;;;8.88;4.75;;;;;;;;;;5140720;27;20055;-66
2022/01/22 12:25:01;;;;;;;10.43;4.65;;;;;;;;;;5137967;27;20085;-65
2022/01/22 12:27:59;;;;;;;11.70;4.90;;;;;;;;;;5130843;27;20051;-66
2022/01/22 12:30:34;;;;;;;10.02;4.43;;;;;;;;;;5089695;27;20047;-66
2022/01/22 12:33:01;;;;;;;10.70;4.38;;;;;;;;;;5135556;27;20055;-65
2022/01/22 12:35:35;;;;;;;12.02;4.38;;;;;;;;;;5133707;27;20092;-65
2022/01/22 12:38:36;;;;;;;6.43;3.90;;;;;;;;;;5134035;27;20063;-65
2022/01/22 12:41:26;;;;;;;10.93;4.00;;;;;;;;;;5114762;28;20509;-66
2022/01/22 12:44:11;;;;;;;10.90;3.65;;;;;;;;;;5129188;27;20059;-66
2022/01/22 12:46:48;;;;;;;9.93;3.50;;;;;;;;;;5136642;27;20134;-65
2022/01/22 12:49:15;;;;;;;6.75;3.58;;;;;;;;;;5120292;27;20060;-65
2022/01/22 12:51:42;;;;;;;20.17;3.70;;;;;;;;;;5123212;27;20431;-64
2022/01/22 12:54:08;;;;;;;10.43;4.43;;;;;;;;;;5146305;27;20047;-65
2022/01/22 12:57:04;;;;;;;7.97;3.10;;;;;;;;;;5125480;27;20150;-65
2022/01/22 12:59:32;;;;;;;7.75;3.15;;;;;;;;;;5127911;27;20055;-65
2022/01/22 13:01:58;;;;;;;9.18;3.58;;;;;;;;;;5145539;27;20083;-65
2022/01/22 13:04:25;;;;;;;6.90;3.70;;;;;;;;;;5143973;27;20059;-66
2022/01/22 13:06:53;;;;;;;7.35;3.67;;;;;;;;;;5143627;27;20056;-65
2022/01/22 13:09:19;;;;;;;11.13;4.38;;;;;;;;;;5129736;27;20044;-65
2022/01/22 13:11:50;;;;;;;6.70;3.78;;;;;;;;;;5131071;27;20059;-65
2022/01/22 13:14:18;;;;;;;7.97;3.88;;;;;;;;;;5132451;27;20052;-64
2022/01/22 13:16:45;;;;;;;9.98;3.80;;;;;;;;;;5132590;27;20154;-64
2022/01/22 13:19:11;;;;;;;12.18;3.67;;;;;;;;;;5124164;27;20509;-64
2022/01/22 13:21:38;;;;;;;10.23;4.35;;;;;;;;;;5114202;28;20050;-64
2022/01/22 13:24:05;;;;;;;8.98;4.47;;;;;;;;;;5129277;27;20056;-64
2022/01/22 13:26:39;;;;;;;8.23;4.25;;;;;;;;;;5134626;27;20074;-64
2022/01/22 13:29:24;;;;;;;7.85;4.57;;;;;;;;;;5132367;27;20052;-66
2022/01/22 13:32:06;;;;;;;9.97;4.50;;;;;;;;;;5132192;27;20185;-64
2022/01/22 13:34:50;;;;;;;11.75;4.45;;;;;;;;;;5117393;27;20054;-65
2022/01/22 13:48:26;;;;;;;11.73;5.10;;;;;;;;;;5131116;27;20521;-64
2022/01/22 13:50:52;;;;;;;12.02;5.53;;;;;;;;;;5132604;27;20051;-63
2022/01/22 13:53:19;;;;;;;9.90;5.15;;;;;;;;;;5133673;27;20515;-64
2022/01/22 13:55:58;;;;;;;11.07;5.50;;;;;;;;;;5130256;27;20082;-64
2022/01/22 13:58:25;;;;;;;11.95;6.25;;;;;;;;;;5132535;27;20055;-64
2022/01/22 14:00:51;;;;;;;13.48;6.10;;;;;;;;;;5133415;27;20058;-63
2022/01/22 14:03:40;;;;;;;13.52;6.53;;;;;;;;;;5131782;27;20067;-64
2022/01/22 14:06:08;;;;;;;11.98;6.22;;;;;;;;;;5133415;27;20588;-64
2022/01/22 14:08:34;;;;;;;12.93;6.43;;;;;;;;;;5115679;27;20058;-64
2022/01/22 14:11:11;;;;;;;9.43;6.07;;;;;;;;;;5120541;27;20138;-65
2022/01/22 14:13:38;;;;;;;11.80;7.18;;;;;;;;;;5131225;27;20047;-64
2022/01/22 14:16:11;;;;;;;10.30;6.43;;;;;;;;;;5128651;27;20052;-64
2022/01/22 14:18:39;;;;;;;15.90;6.60;;;;;;;;;;5121090;27;20055;-63
2022/01/22 14:21:12;;;;;;;14.77;6.43;;;;;;;;;;5132938;27;20114;-63
2022/01/22 14:23:40;;;;;;;13.82;7.55;;;;;;;;;;5132604;27;20079;-64
2022/01/22 14:26:08;;;;;;;11.43;7.38;;;;;;;;;;5114124;27;20047;-64
2022/01/22 14:28:38;;;;;;;18.30;7.38;;;;;;;;;;5129339;27;20131;-64
2022/01/22 14:31:17;;;;;;;18.77;7.43;;;;;;;;;;5112907;27;20545;-64
2022/01/22 14:33:44;;;;;;;13.13;6.90;;;;;;;;;;5124043;27;20048;-65
2022/01/22 14:36:13;;;;;;;12.20;6.68;;;;;;;;;;5121349;27;20525;-64
2022/01/22 14:38:55;;;;;;;10.85;7.20;;;;;;;;;;5111808;27;20058;-64
2022/01/22 14:46:41;;;;;;;13.60;6.55;;;;;;;;;;5139195;27;20297;-63
2022/01/22 14:49:07;;;;;;;10.25;6.38;;;;;;;;;;5133362;27;20549;-63
2022/01/22 14:51:33;;;;;;;10.77;5.47;;;;;;;;;;5132287;27;20055;-64
2022/01/22 14:54:00;;;;;;;12.45;6.20;;;;;;;;;;5126634;27;20044;-65
2022/01/22 14:56:26;;;;;;;14.07;6.40;;;;;;;;;;5121949;27;20047;-64
2022/01/22 14:58:52;;;;;;;10.40;6.85;;;;;;;;;;5128362;27;20154;-67
2022/01/22 15:01:18;;;;;;;15.18;7.10;;;;;;;;;;5121623;27;20046;-65
2022/01/22 15:03:45;;;;;;;11.60;5.80;;;;;;;;;;5130900;27;20146;-63
2022/01/22 15:06:11;;;;;;;13.25;6.60;;;;;;;;;;5135763;27;20127;-64
2022/01/22 15:08:37;;;;;;;21.45;5.97;;;;;;;;;;5135891;27;20055;-64
2022/01/22 15:11:04;;;;;;;12.98;6.47;;;;;;;;;;5136842;27;20067;-64
2022/01/22 15:13:30;;;;;;;12.90;6.65;;;;;;;;;;5135793;27;20505;-65
2022/01/22 15:15:58;;;;;;;12.07;5.82;;;;;;;;;;5138966;27;20519;-65
2022/01/22 15:18:49;;;;;;;12.77;6.45;;;;;;;;;;5145430;27;20433;-65
2022/01/22 15:21:11;;;;;;;14.30;5.70;;;;;;;;;;5135693;27;20050;-65
2022/01/22 15:23:38;;;;;;;9.88;6.40;;;;;;;;;;5131954;27;20062;-65
2022/01/22 15:26:05;;;;;;;12.48;5.80;;;;;;;;;;5124080;27;20048;-65
2022/01/22 15:28:36;;;;;;;14.70;6.45;;;;;;;;;;5130593;27;20077;-65
2022/01/22 15:31:02;;;;;;;13.57;5.70;;;;;;;;;;5144784;27;20095;-65
2022/01/22 15:33:47;;;;;;;13.43;5.47;;;;;;;;;;5115538;27;20323;-65
2022/01/22 15:36:14;;;;;;;10.55;5.20;;;;;;;;;;5131780;27;20055;-65
2022/01/22 15:38:41;;;;;;;9.00;5.38;;;;;;;;;;5135058;27;20059;-65
2022/01/22 15:41:08;;;;;;;11.52;5.40;;;;;;;;;;5135994;27;20054;-64
2022/01/22 15:43:34;;;;;;;17.50;5.97;;;;;;;;;;5134748;27;20073;-65
2022/01/22 15:46:00;;;;;;;10.23;5.82;;;;;;;;;;5117428;27;20546;-65
2022/01/22 15:48:27;;;;;;;10.57;5.35;;;;;;;;;;5128846;27;20073;-65
2022/01/22 15:50:53;;;;;;;8.98;5.65;;;;;;;;;;5135188;27;20048;-64
2022/01/22 15:53:20;;;;;;;11.85;6.78;;;;;;;;;;5115243;27;20053;-64
2022/01/22 15:55:49;;;;;;;10.88;6.15;;;;;;;;;;5135978;27;20054;-64
2022/01/22 15:58:16;;;;;;;13.77;7.03;;;;;;;;;;5118260;27;20101;-65
2022/01/22 16:00:42;;;;;;;11.25;6.50;;;;;;;;;;5131900;27;20574;-65
2022/01/22 16:03:10;;;;;;;21.67;8.00;;;;;;;;;;5134674;27;20527;-65
2022/01/22 16:05:39;;;;;;;13.88;6.60;;;;;;;;;;5134981;27;20113;-66
2022/01/22 16:08:05;;;;;;;17.23;8.05;;;;;;;;;;5135096;27;20509;-66
2022/01/22 16:10:53;;;;;;;16.65;7.78;;;;;;;;;;5134812;27;20051;-64
2022/01/22 16:13:20;;;;;;;16.05;8.18;;;;;;;;;;5122057;27;20048;-65
2022/01/22 16:15:46;;;;;;;13.77;7.75;;;;;;;;;;5128778;27;20487;-65
2022/01/22 16:18:13;;;;;;;19.08;8.65;;;;;;;;;;5114615;27;20078;-64
2022/01/22 16:20:39;;;;;;;16.10;7.90;;;;;;;;;;5142234;27;20095;-65
2022/01/22 16:23:05;;;;;;;15.98;7.32;;;;;;;;;;5125194;27;20047;-65
2022/01/22 16:25:32;;;;;;;13.65;8.75;;;;;;;;;;5125471;27;20143;-66
2022/01/22 16:27:59;;;;;;;15.63;8.10;;;;;;;;;;5129482;27;20079;-65
2022/01/22 16:30:25;;;;;;;17.02;9.05;;;;;;;;;;5134627;27;20052;-65